Time;durP1;ratioP1;P1;durP2;ratioP2;P2;SDS_P1;SDS_P2;PMS_P1;PMS_P2;Temp;Humidity;BMP_temperature;BMP_pressure;BME280_temperature;BME280_humidity;BME280_pressure;Samples;Min_cycle;Max_cycle;Signal;HPM_P1;HPM_P2
2022/11/03 00:01:41;;;;;;;33.85;20.65;;;14.20;84.20;;;;;;5074482;28;20053;-16
2022/11/03 00:04:10;;;;;;;32.78;21.88;;;14.20;84.30;;;;;;5073356;28;20075;-14
2022/11/03 00:06:36;;;;;;;33.25;20.70;;;14.30;84.40;;;;;;5074513;28;20035;-14
2022/11/03 00:09:05;;;;;;;30.42;19.23;;;14.20;84.30;;;;;;5074160;28;20078;-16
2022/11/03 00:11:33;;;;;;;26.58;17.23;;;14.20;84.40;;;;;;5074917;28;20483;-15
2022/11/03 00:14:00;;;;;;;29.42;17.33;;;14.20;84.40;;;;;;5074360;28;20074;-16
2022/11/03 00:16:26;;;;;;;26.77;17.00;;;14.20;84.40;;;;;;5073088;28;20021;-15
2022/11/03 00:18:52;;;;;;;31.65;19.23;;;14.20;84.30;;;;;;5074023;28;20028;-15
2022/11/03 00:21:18;;;;;;;32.67;20.20;;;14.20;84.30;;;;;;5074196;28;20112;-16
2022/11/03 00:23:44;;;;;;;34.45;20.80;;;14.20;84.30;;;;;;5074122;28;20028;-14
2022/11/03 00:26:12;;;;;;;27.45;18.67;;;14.20;84.30;;;;;;5074350;28;20127;-15
2022/11/03 00:28:39;;;;;;;23.33;16.05;;;14.20;84.30;;;;;;5074045;28;20119;-16
2022/11/03 00:31:09;;;;;;;25.35;16.10;;;14.20;84.30;;;;;;5072279;28;20518;-15
2022/11/03 00:33:37;;;;;;;28.50;17.83;;;14.20;84.40;;;;;;5074273;28;20064;-15
2022/11/03 00:36:03;;;;;;;32.38;20.35;;;14.20;84.20;;;;;;5073887;28;20036;-15
2022/11/03 00:38:30;;;;;;;26.55;18.10;;;14.20;84.10;;;;;;5073836;28;20384;-16
2022/11/03 00:41:01;;;;;;;27.42;17.25;;;14.20;84.00;;;;;;5073402;28;20499;-15
2022/11/03 00:43:29;;;;;;;28.52;18.50;;;14.20;84.10;;;;;;5073834;28;20021;-17
2022/11/03 00:45:56;;;;;;;30.13;17.67;;;14.20;84.10;;;;;;5073737;28;20028;-16
2022/11/03 00:48:29;;;;;;;34.72;19.40;;;14.20;84.10;;;;;;5073844;28;20027;-15
2022/11/03 00:51:13;;;;;;;27.97;17.07;;;14.20;84.00;;;;;;5073485;28;20040;-15
2022/11/03 00:53:43;;;;;;;39.33;22.02;;;14.20;84.10;;;;;;5073873;28;20074;-17
2022/11/03 00:56:12;;;;;;;39.28;22.58;;;14.20;84.10;;;;;;5073783;28;20020;-14
2022/11/03 00:58:40;;;;;;;44.33;25.35;;;14.10;84.00;;;;;;5073542;28;20518;-16
2022/11/03 01:01:10;;;;;;;51.30;28.63;;;14.10;84.10;;;;;;5073283;28;20023;-14
2022/11/03 01:03:38;;;;;;;42.25;23.30;;;14.10;84.00;;;;;;5072558;28;20021;-14
2022/11/03 01:08:54;;;;;;;54.65;31.52;;;14.10;84.20;;;;;;5073471;28;20051;-15
2022/11/03 01:14:12;;;;;;;51.67;27.58;;;14.10;84.20;;;;;;5073904;28;20047;-17
2022/11/03 01:16:39;;;;;;;40.88;25.45;;;14.00;84.30;;;;;;5073772;28;20054;-13
2022/11/03 01:19:05;;;;;;;46.60;26.50;;;14.00;84.40;;;;;;5073063;28;20025;-13
2022/11/03 01:21:32;;;;;;;47.65;28.77;;;14.10;84.60;;;;;;5073516;28;20032;-16
2022/11/03 01:24:03;;;;;;;42.63;25.48;;;14.00;84.50;;;;;;5071989;28;20039;-15
2022/11/03 01:26:30;;;;;;;42.63;25.88;;;14.10;84.60;;;;;;5073223;28;20040;-14
2022/11/03 01:28:59;;;;;;;54.58;29.23;;;14.10;84.60;;;;;;5072961;28;20029;-16
2022/11/03 01:31:26;;;;;;;56.03;31.73;;;14.10;84.60;;;;;;5071586;28;20052;-16
2022/11/03 01:33:53;;;;;;;47.45;27.75;;;14.10;84.70;;;;;;5073319;28;20027;-15
2022/11/03 01:36:20;;;;;;;40.78;24.00;;;14.10;84.70;;;;;;5073095;28;20078;-15
2022/11/03 01:38:47;;;;;;;42.90;24.40;;;14.10;84.70;;;;;;5073388;28;20035;-15
2022/11/03 01:41:19;;;;;;;49.45;28.58;;;14.00;84.90;;;;;;5072989;28;20028;-14
2022/11/03 01:43:50;;;;;;;39.70;23.77;;;14.00;84.80;;;;;;5072989;28;20025;-16
2022/11/03 01:46:23;;;;;;;49.38;27.73;;;14.10;84.90;;;;;;5073352;28;20051;-15
2022/11/03 01:49:01;;;;;;;60.97;33.03;;;14.00;84.90;;;;;;5073095;28;20021;-15
2022/11/03 01:51:29;;;;;;;45.35;26.77;;;14.00;85.10;;;;;;5073162;28;20029;-15
2022/11/03 01:54:02;;;;;;;47.45;27.95;;;14.00;85.10;;;;;;5077306;28;20432;-15
2022/11/03 01:56:32;;;;;;;38.25;21.95;;;14.00;85.10;;;;;;5076962;28;20016;-14
2022/11/03 01:58:59;;;;;;;30.08;19.25;;;14.00;85.00;;;;;;5077621;28;20025;-15
2022/11/03 02:01:26;;;;;;;33.72;20.35;;;14.00;85.10;;;;;;5076897;28;20032;-16
2022/11/03 02:03:59;;;;;;;34.95;21.38;;;14.00;85.10;;;;;;5076872;28;20421;-15
2022/11/03 02:06:26;;;;;;;38.22;21.98;;;14.00;85.00;;;;;;5077501;28;20405;-16
2022/11/03 02:09:06;;;;;;;39.55;24.23;;;14.00;84.90;;;;;;5076449;28;20024;-15
2022/11/03 02:14:18;;;;;;;36.70;21.88;;;13.90;84.90;;;;;;5077097;28;20043;-16
2022/11/03 02:16:54;;;;;;;38.35;22.33;;;13.90;84.90;;;;;;5076864;28;20024;-17
2022/11/03 02:19:37;;;;;;;30.27;20.13;;;13.90;84.90;;;;;;5077220;28;20119;-15
2022/11/03 02:22:30;;;;;;;36.78;22.05;;;13.90;84.90;;;;;;5076531;28;20032;-15
2022/11/03 02:25:29;;;;;;;28.73;17.77;;;13.80;85.00;;;;;;5076292;28;20511;-15
2022/11/03 02:27:56;;;;;;;30.27;18.95;;;13.80;85.00;;;;;;5076743;28;20052;-15
2022/11/03 02:30:22;;;;;;;28.30;18.35;;;13.90;85.00;;;;;;5076562;28;20064;-17
2022/11/03 02:33:00;;;;;;;25.20;16.25;;;13.80;85.00;;;;;;5076012;28;20516;-14
2022/11/03 02:35:35;;;;;;;30.40;19.65;;;13.80;85.00;;;;;;5076508;28;20074;-14
2022/11/03 02:38:05;;;;;;;49.08;24.48;;;13.80;85.00;;;;;;5076586;28;20043;-14
2022/11/03 02:40:36;;;;;;;29.77;18.10;;;13.70;84.90;;;;;;5076091;28;20029;-16
2022/11/03 02:43:04;;;;;;;34.17;21.38;;;13.70;84.80;;;;;;5076304;28;20048;-15
2022/11/03 02:45:31;;;;;;;36.03;18.90;;;13.60;84.90;;;;;;5076042;28;20029;-14
2022/11/03 02:48:00;;;;;;;24.27;16.50;;;13.60;84.90;;;;;;5076273;28;20037;-14
2022/11/03 02:50:31;;;;;;;25.50;15.68;;;13.60;85.00;;;;;;5076243;28;20134;-16
2022/11/03 02:52:57;;;;;;;22.48;15.32;;;13.50;85.00;;;;;;5075885;28;20013;-14
2022/11/03 02:55:44;;;;;;;26.17;15.82;;;13.60;85.10;;;;;;5076223;28;20028;-17
2022/11/03 02:58:19;;;;;;;22.67;16.08;;;13.60;85.10;;;;;;5075882;28;20119;-16
2022/11/03 03:00:56;;;;;;;22.67;14.93;;;13.50;85.00;;;;;;5075831;28;20056;-15
2022/11/03 03:03:34;;;;;;;35.40;18.77;;;13.50;85.00;;;;;;5075061;28;20021;-14
2022/11/03 03:06:08;;;;;;;26.80;17.55;;;13.50;85.00;;;;;;5076057;28;20029;-16
2022/11/03 03:08:38;;;;;;;28.08;17.27;;;13.40;85.00;;;;;;5075717;28;20380;-15
2022/11/03 03:11:06;;;;;;;39.72;23.08;;;13.40;85.00;;;;;;5075248;28;20024;-17
2022/11/03 03:13:32;;;;;;;43.95;24.83;;;13.50;85.00;;;;;;5075581;28;20024;-17
2022/11/03 03:16:13;;;;;;;32.30;20.77;;;13.50;85.00;;;;;;5075878;28;20108;-17
2022/11/03 03:18:59;;;;;;;30.48;18.30;;;13.50;85.00;;;;;;5076386;28;20077;-17
2022/11/03 03:21:32;;;;;;;34.47;19.67;;;13.50;85.00;;;;;;5075796;28;20028;-15
2022/11/03 03:24:17;;;;;;;27.70;18.50;;;13.50;85.00;;;;;;5075765;28;20373;-16
2022/11/03 03:26:48;;;;;;;29.05;18.55;;;13.50;85.00;;;;;;5075590;28;20028;-15
2022/11/03 03:29:25;;;;;;;35.95;22.17;;;13.50;85.10;;;;;;5075157;28;20508;-17
2022/11/03 03:31:56;;;;;;;26.90;16.35;;;13.50;85.10;;;;;;5075352;28;20131;-15
2022/11/03 03:34:25;;;;;;;26.05;17.70;;;13.60;85.10;;;;;;5073999;28;20434;-16
2022/11/03 03:36:55;;;;;;;28.42;17.10;;;13.60;85.10;;;;;;5074849;28;20063;-14
2022/11/03 03:39:25;;;;;;;32.53;20.20;;;13.60;85.10;;;;;;5075113;28;20056;-16
2022/11/03 03:41:52;;;;;;;27.27;16.67;;;13.60;85.10;;;;;;5075064;28;20028;-15
2022/11/03 03:44:20;;;;;;;22.35;14.95;;;13.70;85.00;;;;;;5074981;28;20362;-14
2022/11/03 03:46:59;;;;;;;25.02;15.98;;;13.60;85.00;;;;;;5075047;28;20115;-15
2022/11/03 03:49:26;;;;;;;34.60;22.63;;;13.70;85.00;;;;;;5074899;28;20119;-17
2022/11/03 03:51:52;;;;;;;25.42;16.33;;;13.70;85.10;;;;;;5074869;28;20025;-15
2022/11/03 03:54:18;;;;;;;23.20;15.80;;;13.70;85.00;;;;;;5075075;28;20081;-17
2022/11/03 03:56:55;;;;;;;27.48;16.77;;;13.70;85.00;;;;;;5075455;28;20423;-15
2022/11/03 03:59:21;;;;;;;30.70;17.00;;;13.60;85.00;;;;;;5074699;28;20021;-15
2022/11/03 04:01:47;;;;;;;24.50;15.00;;;13.70;85.00;;;;;;5074647;28;20445;-17
2022/11/03 04:04:13;;;;;;;24.35;16.17;;;13.70;85.00;;;;;;5074595;28;20021;-15
2022/11/03 04:06:39;;;;;;;23.42;15.32;;;13.60;85.00;;;;;;5074628;28;20021;-15
2022/11/03 04:09:05;;;;;;;25.63;16.30;;;13.70;85.00;;;;;;5074294;28;20082;-17
2022/11/03 04:22:31;;;;;;;34.67;20.20;;;13.80;84.60;;;;;;5074310;28;20058;-16
2022/11/03 04:24:58;;;;;;;30.70;19.98;;;13.70;84.60;;;;;;5074209;28;20132;-16
2022/11/03 04:27:36;;;;;;;34.90;20.27;;;13.70;84.60;;;;;;5074033;28;20392;-15
2022/11/03 04:30:08;;;;;;;27.90;17.85;;;13.70;84.60;;;;;;5074025;28;20108;-16
2022/11/03 04:32:35;;;;;;;31.58;19.48;;;13.70;84.80;;;;;;5073723;28;20545;-16
2022/11/03 04:35:09;;;;;;;37.67;23.15;;;13.70;84.80;;;;;;5073839;28;20511;-15
2022/11/03 04:37:35;;;;;;;29.45;18.23;;;13.70;84.80;;;;;;5073923;28;20379;-15
2022/11/03 04:40:02;;;;;;;35.17;20.98;;;13.70;84.80;;;;;;5074111;28;20021;-15
2022/11/03 04:42:32;;;;;;;29.42;18.85;;;13.70;84.80;;;;;;5074088;28;20020;-14
2022/11/03 04:45:01;;;;;;;43.25;24.33;;;13.70;84.80;;;;;;5073966;28;20025;-16
2022/11/03 04:47:29;;;;;;;31.25;19.23;;;13.70;84.80;;;;;;5073792;28;20498;-15
2022/11/03 04:49:57;;;;;;;31.88;19.63;;;13.70;84.80;;;;;;5073895;28;20418;-15
2022/11/03 04:52:23;;;;;;;41.58;24.10;;;13.70;84.90;;;;;;5074417;28;20159;-14
2022/11/03 04:54:51;;;;;;;32.58;20.55;;;13.70;84.80;;;;;;5072251;28;20107;-14
2022/11/03 04:57:17;;;;;;;46.25;26.80;;;13.70;84.80;;;;;;5073780;28;20495;-14
2022/11/03 04:59:47;;;;;;;37.58;19.95;;;13.70;84.80;;;;;;5072621;28;20040;-17
2022/11/03 05:02:17;;;;;;;36.95;22.05;;;13.70;84.90;;;;;;5073460;28;20029;-14
2022/11/03 05:04:44;;;;;;;37.17;23.45;;;13.60;84.90;;;;;;5073515;28;20020;-16
2022/11/03 05:07:31;;;;;;;39.42;22.95;;;13.60;84.90;;;;;;5072003;28;20024;-17
2022/11/03 05:09:58;;;;;;;39.83;24.65;;;13.60;85.00;;;;;;5073682;28;20423;-15
2022/11/03 05:12:25;;;;;;;48.58;26.13;;;13.50;85.00;;;;;;5074126;28;20032;-17
2022/11/03 05:14:51;;;;;;;37.50;21.65;;;13.50;85.00;;;;;;5073393;28;20505;-17
2022/11/03 05:17:22;;;;;;;41.80;25.15;;;13.50;85.10;;;;;;5073308;28;20034;-15
2022/11/03 05:19:54;;;;;;;39.70;23.63;;;13.40;85.20;;;;;;5073598;28;20133;-15
2022/11/03 05:22:23;;;;;;;34.67;20.23;;;13.40;85.20;;;;;;5073277;28;20027;-15
2022/11/03 05:24:59;;;;;;;29.42;18.88;;;13.40;85.30;;;;;;5073184;28;20020;-17
2022/11/03 05:27:26;;;;;;;38.88;23.55;;;13.40;85.40;;;;;;5072690;28;20051;-15
2022/11/03 05:29:56;;;;;;;30.83;19.55;;;13.40;85.40;;;;;;5073307;28;20424;-17
2022/11/03 05:32:27;;;;;;;29.02;18.10;;;13.40;85.50;;;;;;5073069;28;20135;-14
2022/11/03 05:34:55;;;;;;;28.00;17.70;;;13.40;85.50;;;;;;5072955;28;20029;-15
2022/11/03 05:37:34;;;;;;;25.38;15.90;;;13.40;85.50;;;;;;5073717;28;20066;-15
2022/11/03 05:40:04;;;;;;;29.67;18.15;;;13.40;85.50;;;;;;5073291;28;20090;-15
2022/11/03 05:42:32;;;;;;;25.80;16.60;;;13.40;85.50;;;;;;5072777;28;20038;-15
2022/11/03 05:45:01;;;;;;;28.60;17.33;;;13.40;85.40;;;;;;5072884;28;20024;-15
2022/11/03 05:47:35;;;;;;;26.92;16.88;;;13.40;85.40;;;;;;5073271;28;20033;-16
2022/11/03 05:50:26;;;;;;;21.05;15.13;;;13.40;85.30;;;;;;5073211;28;20060;-15
2022/11/03 05:53:02;;;;;;;22.42;13.98;;;13.40;85.40;;;;;;5073127;28;20057;-15
2022/11/03 05:55:34;;;;;;;31.70;19.40;;;13.40;85.40;;;;;;5072896;28;20025;-17
2022/11/03 05:58:29;;;;;;;24.60;15.75;;;13.40;85.30;;;;;;5072849;28;20020;-17
2022/11/03 06:00:56;;;;;;;29.05;18.80;;;13.40;85.30;;;;;;5071526;28;20391;-15
2022/11/03 06:03:30;;;;;;;27.85;16.90;;;13.40;85.40;;;;;;5072838;28;20028;-14
2022/11/03 06:05:58;;;;;;;23.52;15.68;;;13.40;85.40;;;;;;5072835;28;20067;-14
2022/11/03 06:08:27;;;;;;;24.27;15.68;;;13.40;85.50;;;;;;5072786;28;20036;-15
2022/11/03 06:10:57;;;;;;;36.45;23.38;;;13.40;85.50;;;;;;5072444;28;20050;-16
2022/11/03 06:13:37;;;;;;;24.40;14.60;;;13.40;85.40;;;;;;5072718;28;20470;-15
2022/11/03 06:16:32;;;;;;;30.75;18.50;;;13.40;85.40;;;;;;5072708;28;20040;-15
2022/11/03 06:19:00;;;;;;;35.90;21.77;;;13.50;85.50;;;;;;5068667;28;20078;-16
2022/11/03 06:21:26;;;;;;;34.17;20.00;;;13.50;85.50;;;;;;5072588;28;20021;-15
2022/11/03 06:23:54;;;;;;;37.97;22.38;;;13.50;85.40;;;;;;5072477;28;20039;-15
2022/11/03 06:26:23;;;;;;;32.00;19.58;;;13.50;85.30;;;;;;5072544;28;20096;-15
2022/11/03 06:28:50;;;;;;;29.58;18.83;;;13.50;85.30;;;;;;5072366;28;20029;-15
2022/11/03 06:31:29;;;;;;;23.58;15.50;;;13.50;85.30;;;;;;5072522;28;20052;-15
2022/11/03 06:33:56;;;;;;;25.50;17.40;;;13.50;85.20;;;;;;5072622;28;20031;-15
2022/11/03 06:36:25;;;;;;;37.85;18.85;;;13.60;85.10;;;;;;5072456;28;20036;-16
2022/11/03 06:38:59;;;;;;;38.75;24.40;;;13.60;85.10;;;;;;5074550;28;20024;-16
2022/11/03 06:41:28;;;;;;;25.67;16.60;;;13.60;85.10;;;;;;5075515;28;20078;-15
2022/11/03 06:43:56;;;;;;;33.22;21.02;;;13.60;85.20;;;;;;5076524;28;20063;-15
2022/11/03 06:46:25;;;;;;;32.10;20.85;;;13.60;85.20;;;;;;5076727;28;20059;-15
2022/11/03 06:48:57;;;;;;;41.30;24.00;;;13.60;85.30;;;;;;5076473;28;20016;-17
2022/11/03 06:51:27;;;;;;;31.10;19.13;;;13.60;85.10;;;;;;5076233;28;20556;-17
2022/11/03 06:53:57;;;;;;;25.27;16.40;;;13.60;85.00;;;;;;5076336;28;20025;-17
2022/11/03 06:56:30;;;;;;;28.13;17.85;;;13.60;85.10;;;;;;5076064;28;20522;-15
2022/11/03 06:58:57;;;;;;;30.17;18.35;;;13.60;85.20;;;;;;5076048;28;20025;-16
2022/11/03 07:01:31;;;;;;;25.92;16.05;;;13.60;85.20;;;;;;5075264;28;20066;-16
2022/11/03 07:04:07;;;;;;;34.33;19.33;;;13.60;85.20;;;;;;5076121;28;20085;-16
2022/11/03 07:06:36;;;;;;;35.95;22.05;;;13.60;85.20;;;;;;5076054;28;20384;-17
2022/11/03 07:09:06;;;;;;;34.88;21.48;;;13.70;85.20;;;;;;5075414;28;20036;-14
2022/11/03 07:11:44;;;;;;;32.03;18.60;;;13.70;85.00;;;;;;5075888;28;20052;-16
2022/11/03 07:14:21;;;;;;;36.85;21.90;;;13.80;85.00;;;;;;5075817;28;20123;-16
2022/11/03 07:16:52;;;;;;;41.25;23.27;;;13.80;84.90;;;;;;5075729;28;20017;-17
2022/11/03 07:19:32;;;;;;;45.47;25.65;;;13.80;84.90;;;;;;5075878;28;20033;-14
2022/11/03 07:22:08;;;;;;;37.53;23.25;;;13.90;84.80;;;;;;5075836;28;20028;-14
2022/11/03 07:24:46;;;;;;;34.50;20.50;;;13.90;84.80;;;;;;5075672;28;20074;-14
2022/11/03 07:27:32;;;;;;;38.63;22.45;;;13.90;84.80;;;;;;5075576;28;20021;-15
2022/11/03 07:30:10;;;;;;;30.83;18.88;;;13.90;84.80;;;;;;5071336;28;20552;-14
2022/11/03 07:32:37;;;;;;;41.45;25.80;;;13.90;84.80;;;;;;5074947;28;20503;-16
2022/11/03 07:35:17;;;;;;;48.50;28.88;;;14.00;84.80;;;;;;5075262;28;20181;-15
2022/11/03 07:37:44;;;;;;;37.20;23.17;;;14.10;84.70;;;;;;5075218;28;20020;-16
2022/11/03 07:40:23;;;;;;;46.38;27.00;;;14.10;84.70;;;;;;5075363;28;20017;-17
2022/11/03 07:42:50;;;;;;;42.15;25.45;;;14.20;84.60;;;;;;5074727;28;20016;-15
2022/11/03 07:45:48;;;;;;;48.20;25.20;;;14.30;84.60;;;;;;5075642;28;20037;-15
2022/11/03 07:48:20;;;;;;;42.63;22.60;;;14.30;84.60;;;;;;5075263;28;20032;-14
2022/11/03 07:50:57;;;;;;;33.72;19.63;;;14.40;84.70;;;;;;5074672;28;20046;-16
2022/11/03 07:53:44;;;;;;;33.22;20.27;;;14.40;84.80;;;;;;5074883;28;20495;-16
2022/11/03 07:56:22;;;;;;;39.47;20.63;;;14.60;84.90;;;;;;5075021;28;20031;-15
2022/11/03 07:59:03;;;;;;;32.55;20.58;;;14.80;85.00;;;;;;5074863;28;20101;-15
2022/11/03 08:01:35;;;;;;;31.98;19.92;;;14.90;84.70;;;;;;5075066;28;20044;-14
2022/11/03 08:04:04;;;;;;;35.85;21.58;;;15.10;84.70;;;;;;5075016;28;20025;-14
2022/11/03 08:06:31;;;;;;;35.70;20.40;;;15.40;84.70;;;;;;5074859;28;20039;-15
2022/11/03 08:08:57;;;;;;;35.97;19.73;;;15.50;84.40;;;;;;5074643;28;20024;-16
2022/11/03 08:11:23;;;;;;;35.22;18.98;;;15.70;84.10;;;;;;5074333;28;20043;-15
2022/11/03 08:13:52;;;;;;;35.08;20.38;;;15.90;83.60;;;;;;5075070;28;20028;-15
2022/11/03 08:16:19;;;;;;;33.35;19.60;;;15.90;83.50;;;;;;5074691;28;20121;-14
2022/11/03 08:18:45;;;;;;;34.45;19.98;;;16.10;83.60;;;;;;5074375;28;20103;-15
2022/11/03 08:21:13;;;;;;;33.55;21.30;;;16.20;83.40;;;;;;5074528;28;20099;-15
2022/11/03 08:23:39;;;;;;;33.08;20.45;;;16.30;83.10;;;;;;5074821;28;20028;-14
2022/11/03 08:26:05;;;;;;;35.47;20.52;;;16.50;83.00;;;;;;5074307;28;20028;-15
2022/11/03 08:28:32;;;;;;;33.25;19.95;;;16.70;82.80;;;;;;5074088;28;20024;-17
2022/11/03 08:31:03;;;;;;;34.65;21.10;;;16.90;82.40;;;;;;5073658;28;20031;-15
2022/11/03 08:33:31;;;;;;;31.85;19.25;;;17.00;82.00;;;;;;5074731;28;20021;-16
2022/11/03 08:35:59;;;;;;;40.30;23.77;;;17.10;81.80;;;;;;5073979;28;20025;-15
2022/11/03 08:38:25;;;;;;;48.80;27.67;;;17.20;81.70;;;;;;5073926;28;20389;-16
2022/11/03 08:40:52;;;;;;;42.88;22.95;;;17.30;81.40;;;;;;5073757;28;20027;-16
2022/11/03 08:43:18;;;;;;;34.88;20.60;;;17.40;81.10;;;;;;5073808;28;20070;-14
2022/11/03 08:45:44;;;;;;;29.48;18.90;;;17.40;81.20;;;;;;5073892;28;20068;-17
2022/11/03 08:48:11;;;;;;;32.05;18.95;;;17.40;81.00;;;;;;5073992;28;20541;-15
2022/11/03 08:50:37;;;;;;;41.25;22.80;;;17.40;81.10;;;;;;5073626;28;20032;-16
2022/11/03 08:53:03;;;;;;;45.00;24.80;;;17.50;81.10;;;;;;5073362;28;20028;-15
2022/11/03 08:55:29;;;;;;;40.60;22.92;;;17.70;80.80;;;;;;5073651;28;20025;-15
2022/11/03 08:57:55;;;;;;;44.35;23.25;;;17.80;80.40;;;;;;5073506;28;20024;-14
2022/11/03 09:00:21;;;;;;;37.50;20.92;;;17.90;80.60;;;;;;5073705;28;20048;-15
2022/11/03 09:02:47;;;;;;;37.30;21.80;;;17.90;80.40;;;;;;5073593;28;20021;-16
2022/11/03 09:05:14;;;;;;;44.05;26.33;;;18.10;80.00;;;;;;5073844;28;20024;-16
2022/11/03 09:07:41;;;;;;;39.00;21.40;;;18.30;80.10;;;;;;5073926;28;20032;-17
2022/11/03 09:10:09;;;;;;;43.33;22.00;;;18.40;79.90;;;;;;5073933;28;20028;-17
2022/11/03 09:12:38;;;;;;;44.40;23.38;;;18.60;79.50;;;;;;5073318;28;20578;-16
2022/11/03 09:15:06;;;;;;;39.78;20.50;;;18.80;79.20;;;;;;5073128;28;20033;-15
2022/11/03 09:17:31;;;;;;;40.55;22.05;;;18.90;79.00;;;;;;5073310;28;20024;-16
2022/11/03 09:19:57;;;;;;;39.97;23.30;;;19.10;78.80;;;;;;5073604;28;20074;-15
2022/11/03 09:22:23;;;;;;;41.22;24.55;;;19.30;78.40;;;;;;5072387;28;20032;-15
2022/11/03 09:24:50;;;;;;;39.55;23.38;;;19.50;78.00;;;;;;5073039;28;20024;-15
2022/11/03 09:27:16;;;;;;;43.50;23.63;;;19.60;77.70;;;;;;5073125;28;20021;-15
2022/11/03 09:29:42;;;;;;;43.00;22.58;;;19.70;77.60;;;;;;5073062;28;20472;-14
2022/11/03 09:32:07;;;;;;;43.63;23.83;;;19.90;77.10;;;;;;5073266;28;20135;-15
2022/11/03 09:34:33;;;;;;;40.95;23.92;;;20.20;75.50;;;;;;5073419;28;20028;-14
2022/11/03 09:36:59;;;;;;;46.45;25.00;;;20.40;75.40;;;;;;5073193;28;20468;-16
2022/11/03 09:39:25;;;;;;;44.78;24.88;;;20.60;74.40;;;;;;5073087;28;20472;-15
2022/11/03 09:41:52;;;;;;;39.33;23.25;;;20.60;74.20;;;;;;5073215;28;20025;-15
2022/11/03 09:44:19;;;;;;;46.42;24.85;;;20.60;74.20;;;;;;5073333;28;20511;-15
2022/11/03 09:46:45;;;;;;;51.80;26.80;;;20.60;73.40;;;;;;5073293;28;20520;-14
2022/11/03 09:49:14;;;;;;;52.38;28.38;;;20.60;72.90;;;;;;5073044;28;20115;-15
2022/11/03 09:51:41;;;;;;;52.42;26.83;;;20.60;72.60;;;;;;5072938;28;20035;-14
2022/11/03 09:54:14;;;;;;;51.33;28.10;;;20.60;72.20;;;;;;5072919;28;20028;-14
2022/11/03 09:56:41;;;;;;;52.50;28.10;;;20.60;72.20;;;;;;5072903;28;20032;-16
2022/11/03 09:59:25;;;;;;;51.58;27.92;;;20.70;71.60;;;;;;5072757;28;20387;-15
2022/11/03 10:01:52;;;;;;;;;;;20.70;72.10;;;;;;5073748;28;20028;-15
2022/11/03 10:04:27;;;;;;;47.80;25.48;;;20.70;71.90;;;;;;5073130;28;19904;-14
2022/11/03 10:06:57;;;;;;;50.03;26.83;;;20.80;71.90;;;;;;5072690;28;20450;-14
2022/11/03 10:09:25;;;;;;;45.60;24.73;;;20.80;71.80;;;;;;5072977;28;20033;-14
2022/11/03 10:11:53;;;;;;;42.15;22.02;;;20.70;72.10;;;;;;5072706;28;20409;-14
2022/11/03 10:14:20;;;;;;;51.38;27.05;;;20.70;72.10;;;;;;5075941;28;20078;-15
2022/11/03 10:16:58;;;;;;;47.22;26.48;;;20.80;71.60;;;;;;5076710;28;20654;-14
2022/11/03 10:19:25;;;;;;;53.08;27.98;;;20.80;71.40;;;;;;5076713;28;20024;-15
2022/11/03 10:21:51;;;;;;;53.22;27.77;;;20.90;71.10;;;;;;5076907;28;20036;-14
2022/11/03 10:24:17;;;;;;;51.72;27.35;;;21.00;70.60;;;;;;5076817;28;20045;-14
2022/11/03 10:26:53;;;;;;;55.70;29.50;;;21.10;70.30;;;;;;5076390;28;20433;-14
2022/11/03 10:29:25;;;;;;;47.10;26.17;;;21.20;69.80;;;;;;5076345;28;20016;-14
2022/11/03 10:31:57;;;;;;;53.45;28.65;;;21.30;69.50;;;;;;5076389;28;20123;-16
2022/11/03 10:34:33;;;;;;;56.97;29.15;;;21.40;69.10;;;;;;5076861;28;20074;-15
2022/11/03 10:37:19;;;;;;;51.92;27.63;;;21.50;68.90;;;;;;5076121;28;20027;-13
2022/11/03 10:39:47;;;;;;;55.30;29.45;;;21.60;69.00;;;;;;5076221;28;20036;-14
2022/11/03 10:42:31;;;;;;;58.25;32.00;;;21.70;67.90;;;;;;5076646;28;20476;-16
2022/11/03 10:45:10;;;;;;;48.90;26.10;;;21.90;67.50;;;;;;5075911;28;20429;-15
2022/11/03 10:47:36;;;;;;;47.72;25.60;;;21.80;67.90;;;;;;5076418;28;20032;-14
2022/11/03 10:50:28;;;;;;;49.58;26.95;;;21.80;68.10;;;;;;5076053;28;20388;-14
2022/11/03 10:52:55;;;;;;;45.17;24.33;;;21.70;68.30;;;;;;5074866;28;20044;-13
2022/11/03 10:55:23;;;;;;;52.42;27.38;;;21.70;69.00;;;;;;5075945;28;20036;-15
2022/11/03 10:57:51;;;;;;;48.50;25.85;;;21.70;68.50;;;;;;5076090;28;20020;-15
2022/11/03 11:00:18;;;;;;;46.95;26.65;;;21.70;68.50;;;;;;5076126;28;20028;-14
2022/11/03 11:02:50;;;;;;;47.97;24.95;;;21.70;68.80;;;;;;5076411;28;20069;-15
2022/11/03 11:05:21;;;;;;;41.15;21.90;;;21.70;68.90;;;;;;5075780;28;20043;-14
2022/11/03 11:07:50;;;;;;;52.15;28.27;;;21.90;69.00;;;;;;5075916;28;20021;-15
2022/11/03 11:10:17;;;;;;;48.83;25.90;;;22.00;68.20;;;;;;5075895;28;20028;-13
2022/11/03 11:13:17;;;;;;;58.42;30.73;;;22.10;68.20;;;;;;5075802;28;20089;-14
2022/11/03 11:15:51;;;;;;;55.35;30.92;;;22.30;67.60;;;;;;5075568;28;20024;-14
2022/11/03 11:18:39;;;;;;;51.65;27.55;;;22.40;67.40;;;;;;5076488;28;20062;-16
2022/11/03 11:21:14;;;;;;;55.53;28.60;;;22.40;67.20;;;;;;5071673;28;20035;-14
2022/11/03 11:23:40;;;;;;;49.60;26.50;;;22.30;67.50;;;;;;5075551;28;20074;-14
2022/11/03 11:26:09;;;;;;;55.47;31.98;;;22.40;67.60;;;;;;5074414;28;20037;-16
2022/11/03 11:28:40;;;;;;;57.85;33.08;;;22.50;67.90;;;;;;5075253;28;20115;-14
2022/11/03 11:31:27;;;;;;;43.63;24.17;;;22.70;67.20;;;;;;5075033;28;20136;-16
2022/11/03 11:34:09;;;;;;;45.72;24.33;;;22.90;66.20;;;;;;5075573;28;20055;-15
2022/11/03 11:36:54;;;;;;;47.03;25.13;;;23.00;66.40;;;;;;5075180;28;20024;-15
2022/11/03 11:39:23;;;;;;;58.67;30.77;;;23.00;66.10;;;;;;5075037;28;20123;-15
2022/11/03 11:42:18;;;;;;;48.25;26.17;;;23.20;65.70;;;;;;5075284;28;20032;-16
2022/11/03 11:47:23;;;;;;;47.65;25.27;;;23.20;65.70;;;;;;5075110;28;20046;-16
2022/11/03 11:50:08;;;;;;;45.88;25.92;;;23.10;65.80;;;;;;5074895;28;20038;-14
2022/11/03 11:52:58;;;;;;;39.40;21.05;;;22.90;65.40;;;;;;5075117;28;20033;-15
2022/11/03 11:55:24;;;;;;;46.67;25.13;;;22.80;66.40;;;;;;5075260;28;20052;-14
2022/11/03 11:57:51;;;;;;;43.13;24.15;;;22.70;65.30;;;;;;5074967;28;20479;-14
2022/11/03 12:00:24;;;;;;;40.03;23.45;;;22.60;65.80;;;;;;5074723;28;20442;-14
2022/11/03 12:02:52;;;;;;;45.60;26.23;;;22.50;66.10;;;;;;5074673;28;20017;-17
2022/11/03 12:05:21;;;;;;;47.42;24.08;;;22.50;65.70;;;;;;5074643;28;20028;-15
2022/11/03 12:07:47;;;;;;;53.72;27.27;;;22.40;65.80;;;;;;5074585;28;20120;-15
2022/11/03 12:10:27;;;;;;;47.17;26.27;;;22.50;64.80;;;;;;5074789;28;20028;-15
2022/11/03 12:12:55;;;;;;;44.95;24.55;;;22.40;64.80;;;;;;5074225;28;20021;-14
2022/11/03 12:15:53;;;;;;;36.83;22.73;;;22.40;65.30;;;;;;5074692;28;20078;-14
2022/11/03 12:18:35;;;;;;;48.72;26.00;;;22.40;65.70;;;;;;5074976;28;20017;-16
2022/11/03 12:21:06;;;;;;;46.38;25.95;;;22.40;65.80;;;;;;5074470;28;20089;-14
2022/11/03 12:23:40;;;;;;;45.95;23.02;;;22.40;64.90;;;;;;5073107;28;20048;-14
2022/11/03 12:26:14;;;;;;;56.90;29.48;;;22.40;65.00;;;;;;5074916;28;20029;-14
2022/11/03 12:28:41;;;;;;;60.70;32.55;;;22.40;64.50;;;;;;5074138;28;20031;-15
2022/11/03 12:31:07;;;;;;;61.15;31.23;;;22.20;64.70;;;;;;5073531;28;20139;-14
2022/11/03 12:33:33;;;;;;;54.78;28.85;;;22.10;65.40;;;;;;5074038;28;20116;-15
2022/11/03 12:35:59;;;;;;;60.95;32.53;;;21.90;65.80;;;;;;5074001;28;20033;-15
2022/11/03 12:38:25;;;;;;;58.33;31.27;;;21.90;65.70;;;;;;5072797;28;20046;-14
2022/11/03 12:40:52;;;;;;;64.40;31.80;;;21.90;65.30;;;;;;5073824;28;20528;-15
2022/11/03 12:43:19;;;;;;;55.53;30.30;;;21.70;65.50;;;;;;5073943;28;20107;-15
2022/11/03 12:45:45;;;;;;;55.80;30.73;;;21.50;66.20;;;;;;5074032;28;20021;-14
2022/11/03 12:48:10;;;;;;;54.22;29.00;;;21.40;66.50;;;;;;5073972;28;20066;-14
2022/11/03 12:50:38;;;;;;;49.78;26.85;;;21.40;66.80;;;;;;5073860;28;20024;-17
2022/11/03 12:53:05;;;;;;;58.28;30.63;;;21.30;67.20;;;;;;5073462;28;20060;-17
2022/11/03 12:55:33;;;;;;;47.75;27.17;;;21.30;67.40;;;;;;5073660;28;20403;-15
2022/11/03 12:57:59;;;;;;;53.25;29.08;;;21.20;67.60;;;;;;5073531;28;20491;-15
2022/11/03 13:00:25;;;;;;;60.03;30.73;;;21.30;67.40;;;;;;5073927;28;20021;-15
2022/11/03 13:02:51;;;;;;;62.42;31.65;;;21.20;67.50;;;;;;5073309;28;20403;-14
2022/11/03 13:05:17;;;;;;;64.22;34.92;;;21.20;67.60;;;;;;5073779;28;20029;-16
2022/11/03 13:07:43;;;;;;;55.30;30.27;;;21.20;67.70;;;;;;5073762;28;20092;-15
2022/11/03 13:10:10;;;;;;;63.58;31.48;;;21.10;67.90;;;;;;5073354;28;20618;-14